Messwerte Mount Ida

Temperatur

Temperatur
°C
1623567600 2.00 2.00 24
1623571200 3.00 3.00 24
1623574800 4.00 4.00
1623578400 5.00 5.00 24
1623582000 6.00 6.00 24
1623585600 7.00 7.00 24
1623589200 8.00 8.00 26
1623592800 9.00 9.00 29
1623596400 10.00 10.00 31
1623600000 11.00 11.00 33
1623603600 12.00 12.00 32
1623607200 13.00 13.00 32
1623610800 14.00 14.00 33
1623614400 15.00 15.00
1623618000 16.00 16.00 34
1623621600 17.00 17.00 34
1623625200 18.00 18.00 34
1623628800 19.00 19.00 32
1623632400 20.00 20.00 29
1623636000 21.00 21.00
1623639600 22.00 22.00 24
1623643200 23.00 23.00
1623646800 0.00 0.00
1623650400 1.00 1.00 22

Aktuellste Messwerte

Wettercharakter
Wetter: klar
Temperatur
22 °C
Feuchtigkeit
94 %
Wind
0 km/h, -
Luftdruck
1015 hPa
Messzeit: 14. Juni 2021, 2.00Datenquelle: METAR

Weitere Messstationen in der Nähe

Messstation Temperatur Entfernung
Hot Springs 24 °C 45 km
Mena 20 °C 57 km
Russellville 22 °C 93 km
De Queen 24 °C 94 km
Poteau 22 °C 108 km
Fort Smith 23 °C 113 km
Little Rock 25 °C 124 km

Wind

Windrichtung Böen Mittelwind
° km/h km/h
1623567600 2.00 1.00 - 2.00 0
1623571200 3.00 2.00 - 3.00 0
1623574800 4.00 3.00 - 4.00
1623578400 5.00 4.00 - 5.00 0
1623582000 6.00 5.00 - 6.00 0
1623585600 7.00 6.00 - 7.00 0
1623589200 8.00 7.00 - 8.00 5
1623592800 9.00 8.00 - 9.00 0
1623596400 10.00 9.00 - 10.00 0
1623600000 11.00 10.00 - 11.00 0
1623603600 12.00 11.00 - 12.00 0
1623607200 13.00 12.00 - 13.00 5
1623610800 14.00 13.00 - 14.00 0
1623614400 15.00 14.00 - 15.00
1623618000 16.00 15.00 - 16.00 0
1623621600 17.00 16.00 - 17.00 0
1623625200 18.00 17.00 - 18.00 10° 5
1623628800 19.00 18.00 - 19.00 0
1623632400 20.00 19.00 - 20.00 0
1623636000 21.00 20.00 - 21.00
1623639600 22.00 21.00 - 22.00 0
1623643200 23.00 22.00 - 23.00
1623646800 0.00 23.00 - 0.00
1623650400 1.00 0.00 - 1.00 0

Ihre Wetterstation

Fehlt Ihre Wetterstation auf unserem Portal?

Schreiben Sie an network@meteonews.ch

Klima

Wann ist es am wärmsten? Wann regnet es am wenigsten? Unsere Klimadaten geben Auskunft.